Terminal Aerodrome Forecast
Issued by NWS Shreveport, LA

Home | Current Version | Previous Version | Text Only | Print | Product List | Glossary On
Versions: 1 2 3 4 5 6 7 8 9 10 11 12 13 14 15 16 17 18
416
FTUS44 KSHV 082341
TAFMLU
TAF
KMLU 082341Z 0900/0924 02010KT P6SM OVC100
     FM090600 36006KT P6SM BKN100 BKN250
     FM090900 01007KT P6SM SKC
     FM091500 04007KT P6SM SKC=

USA.gov is the U.S. government's official web portal to all federal, state and local government web resources and services.